Alfred, North Dakota
Current Conditions -  °F | °C
As of 5:17 PM on Thursday 27 Nov 2014 (Local Time) from KJMS Reporting Station
Light Snow Light Snow  
Wind Chill: -12°   Ceiling: 2500
Heat Index:   Visibility: 1.5mi
Dew Point:   Wind: 14mph
Humidity: 80%   Direction: 140°SE
Pressure: 30.12"   Gusts: NA
Location:  46.4882°N, 98.8135°W
Report Text: KJMS 272317Z AUTO 14012KT 1 1/2SM -SN OVC025 M15/M18 A3012 RMK AO2 UPE02SNB02 P0000 T11501178
Loading
Personal Weather Stations






























Interactive Weather Map New forecast layout! Learn more

10-Day Weather Forecast

Advertisements
Track Severe Weather on mobile